Pagrindinis puslapis
METAR-TAF:

METAR-TAF

Oro uostai :

Tokijas Haneda, Japonija

platuma: 35-33N, ilguma: 139-47E, Aukštis: 5 m

Dabartinis oras

Ataskaita buvo paskelbta 20 minutes, ne 04:00 UTC
Vėjas 3 kt iš Rytų/Šiaurės Rytų
Temperatūra 11°C
Drėgmė 58%
Slėgis 1027 hPa
Matomumas 10 km arba daugiau
Mažai debesys ne aukštis 3000 ft
Su prošvaistėmis ne aukštis 17000 ft

METAR: RJTT 200400Z 07003KT 9999 FEW030 BKN170 11/03 Q1027 NOSIG RMK 1CU030 7AC170 A3033

Laikas: 13:20 (04:20 UTC)

Prognozė

Ataskaita buvo paskelbta 5 valandos ir 15 minutes, ne 23:05 UTC
Prognozė galioja nuo 20 metu 00 UTC su 21 metu 06 UTC
Vėjas 6 kt iš Šiaurės Rytų
Matomumas 10 km arba daugiau
Mažai debesys ne aukštis 3000 ft
Tapsmas
nuo 21 metu 03 UTC su 21 metu 06 UTC
Vėjas 5 kt iš Rytų

TAF: RJTT 192305Z 2000/2106 04006KT 9999 FEW030 BECMG 2103/2106 10005KT

Orai ataskaitas ir orų prognozės (METAR, TAF).

turimą stotys yra geltonos ir raudonos taškus žemėlapyje.

Perkelti pele per norėdami pamatyti stoties vardą.

Tada spustelėkite, norėdami matyti oro stebėjimo ir prognozės.

Norėdami pakeisti žemėlapį: spustelėkite ant žalios mygtukų su juodo kryžiaus žemyn,; žalią mygtuką su brūkšneliu, jei norite nutolinti; arba žalių rodyklių gretimoms žemėlapius.


METAR-TAF: